sensor_id;sensor_type;location;lat;lon;timestamp;temperature;humidity
66057;DHT22;52842;52.666;5.202;2022-10-31T00:00:40;19.40;87.10
66057;DHT22;52842;52.666;5.202;2022-10-31T00:03:07;19.30;87.80
66057;DHT22;52842;52.666;5.202;2022-10-31T00:05:34;19.40;87.10
66057;DHT22;52842;52.666;5.202;2022-10-31T00:08:02;19.30;87.00
66057;DHT22;52842;52.666;5.202;2022-10-31T00:10:29;19.30;87.00
66057;DHT22;52842;52.666;5.202;2022-10-31T00:12:55;19.30;87.00
66057;DHT22;52842;52.666;5.202;2022-10-31T00:15:22;19.30;87.00
66057;DHT22;52842;52.666;5.202;2022-10-31T00:17:49;19.30;87.00
66057;DHT22;52842;52.666;5.202;2022-10-31T00:20:15;19.30;87.00
66057;DHT22;52842;52.666;5.202;2022-10-31T00:22:42;19.30;87.00
66057;DHT22;52842;52.666;5.202;2022-10-31T00:25:10;19.30;87.10
66057;DHT22;52842;52.666;5.202;2022-10-31T00:27:37;19.30;87.00
66057;DHT22;52842;52.666;5.202;2022-10-31T00:30:04;19.30;87.00
66057;DHT22;52842;52.666;5.202;2022-10-31T00:32:30;19.30;87.00
66057;DHT22;52842;52.666;5.202;2022-10-31T00:34:57;19.20;86.90
66057;DHT22;52842;52.666;5.202;2022-10-31T00:37:24;19.20;86.90
66057;DHT22;52842;52.666;5.202;2022-10-31T00:39:50;19.20;86.90
66057;DHT22;52842;52.666;5.202;2022-10-31T00:42:18;19.20;86.90
66057;DHT22;52842;52.666;5.202;2022-10-31T00:44:45;19.20;86.90
66057;DHT22;52842;52.666;5.202;2022-10-31T00:47:11;19.20;87.60
66057;DHT22;52842;52.666;5.202;2022-10-31T00:49:38;19.20;86.90
66057;DHT22;52842;52.666;5.202;2022-10-31T00:52:05;19.20;86.90
66057;DHT22;52842;52.666;5.202;2022-10-31T00:54:31;19.20;86.90
66057;DHT22;52842;52.666;5.202;2022-10-31T00:56:58;19.10;86.80
66057;DHT22;52842;52.666;5.202;2022-10-31T00:59:26;19.10;86.80
66057;DHT22;52842;52.666;5.202;2022-10-31T01:01:52;19.10;86.90
66057;DHT22;52842;52.666;5.202;2022-10-31T01:04:19;19.10;86.80
66057;DHT22;52842;52.666;5.202;2022-10-31T01:06:46;19.10;86.80
66057;DHT22;52842;52.666;5.202;2022-10-31T01:09:12;19.10;86.80
66057;DHT22;52842;52.666;5.202;2022-10-31T01:11:39;19.10;86.80
66057;DHT22;52842;52.666;5.202;2022-10-31T01:14:06;19.10;86.90
66057;DHT22;52842;52.666;5.202;2022-10-31T01:16:34;19.10;86.90
66057;DHT22;52842;52.666;5.202;2022-10-31T01:19:00;19.10;86.90
66057;DHT22;52842;52.666;5.202;2022-10-31T01:21:27;19.10;86.90
66057;DHT22;52842;52.666;5.202;2022-10-31T01:23:55;19.10;86.90
66057;DHT22;52842;52.666;5.202;2022-10-31T01:26:23;19.10;86.90
66057;DHT22;52842;52.666;5.202;2022-10-31T01:28:51;19.10;86.90
66057;DHT22;52842;52.666;5.202;2022-10-31T01:31:18;19.00;86.90
66057;DHT22;52842;52.666;5.202;2022-10-31T01:33:46;19.00;86.90
66057;DHT22;52842;52.666;5.202;2022-10-31T01:36:14;19.00;86.80
66057;DHT22;52842;52.666;5.202;2022-10-31T01:38:42;19.00;86.80
66057;DHT22;52842;52.666;5.202;2022-10-31T01:41:08;19.00;86.90
66057;DHT22;52842;52.666;5.202;2022-10-31T01:43:46;19.00;86.80
66057;DHT22;52842;52.666;5.202;2022-10-31T01:46:13;19.00;86.90
66057;DHT22;52842;52.666;5.202;2022-10-31T01:48:40;19.00;86.80
66057;DHT22;52842;52.666;5.202;2022-10-31T01:51:08;19.00;86.90
66057;DHT22;52842;52.666;5.202;2022-10-31T01:53:37;18.90;86.80
66057;DHT22;52842;52.666;5.202;2022-10-31T01:56:04;19.00;86.80
66057;DHT22;52842;52.666;5.202;2022-10-31T01:58:30;19.00;86.80
66057;DHT22;52842;52.666;5.202;2022-10-31T02:00:58;18.90;86.80
66057;DHT22;52842;52.666;5.202;2022-10-31T02:03:26;18.90;86.80
66057;DHT22;52842;52.666;5.202;2022-10-31T02:05:53;18.90;86.70
66057;DHT22;52842;52.666;5.202;2022-10-31T02:08:21;18.90;86.70
66057;DHT22;52842;52.666;5.202;2022-10-31T02:10:50;18.90;86.70
66057;DHT22;52842;52.666;5.202;2022-10-31T02:13:17;18.90;86.80
66057;DHT22;52842;52.666;5.202;2022-10-31T02:15:44;18.90;86.70
66057;DHT22;52842;52.666;5.202;2022-10-31T02:18:11;18.90;86.70
66057;DHT22;52842;52.666;5.202;2022-10-31T02:20:40;18.90;86.70
66057;DHT22;52842;52.666;5.202;2022-10-31T02:23:25;18.90;86.70
66057;DHT22;52842;52.666;5.202;2022-10-31T02:26:03;18.80;86.60
66057;DHT22;52842;52.666;5.202;2022-10-31T02:28:38;18.80;86.60
66057;DHT22;52842;52.666;5.202;2022-10-31T02:31:14;18.80;86.60
66057;DHT22;52842;52.666;5.202;2022-10-31T02:33:42;18.80;86.60
66057;DHT22;52842;52.666;5.202;2022-10-31T02:36:10;18.80;86.60
66057;DHT22;52842;52.666;5.202;2022-10-31T02:38:43;18.80;86.60
66057;DHT22;52842;52.666;5.202;2022-10-31T02:41:14;18.80;86.60
66057;DHT22;52842;52.666;5.202;2022-10-31T02:43:47;18.80;86.60
66057;DHT22;52842;52.666;5.202;2022-10-31T02:46:19;18.80;86.60
66057;DHT22;52842;52.666;5.202;2022-10-31T02:48:48;18.80;86.60
66057;DHT22;52842;52.666;5.202;2022-10-31T02:51:16;18.80;86.60
66057;DHT22;52842;52.666;5.202;2022-10-31T02:53:44;18.70;87.30
66057;DHT22;52842;52.666;5.202;2022-10-31T02:56:11;18.70;86.50
66057;DHT22;52842;52.666;5.202;2022-10-31T02:58:39;18.70;86.50
66057;DHT22;52842;52.666;5.202;2022-10-31T03:03:53;18.70;86.50
66057;DHT22;52842;52.666;5.202;2022-10-31T03:06:23;18.70;86.50
66057;DHT22;52842;52.666;5.202;2022-10-31T03:08:54;18.70;87.30
66057;DHT22;52842;52.666;5.202;2022-10-31T03:11:22;18.70;86.50
66057;DHT22;52842;52.666;5.202;2022-10-31T03:13:50;18.70;86.50
66057;DHT22;52842;52.666;5.202;2022-10-31T03:16:18;18.70;86.50
66057;DHT22;52842;52.666;5.202;2022-10-31T03:18:48;18.70;86.50
66057;DHT22;52842;52.666;5.202;2022-10-31T03:21:18;18.60;86.40
66057;DHT22;52842;52.666;5.202;2022-10-31T03:23:47;18.60;86.40
66057;DHT22;52842;52.666;5.202;2022-10-31T03:26:15;18.60;86.40
66057;DHT22;52842;52.666;5.202;2022-10-31T03:28:43;18.60;86.40
66057;DHT22;52842;52.666;5.202;2022-10-31T03:31:11;18.60;86.40
66057;DHT22;52842;52.666;5.202;2022-10-31T03:33:38;18.60;86.40
66057;DHT22;52842;52.666;5.202;2022-10-31T03:36:07;18.60;86.40
66057;DHT22;52842;52.666;5.202;2022-10-31T03:38:36;18.50;86.40
66057;DHT22;52842;52.666;5.202;2022-10-31T03:41:03;18.60;86.40
66057;DHT22;52842;52.666;5.202;2022-10-31T03:43:32;18.50;86.30
66057;DHT22;52842;52.666;5.202;2022-10-31T03:45:59;18.50;86.40
66057;DHT22;52842;52.666;5.202;2022-10-31T03:48:26;18.50;86.30
66057;DHT22;52842;52.666;5.202;2022-10-31T03:50:56;18.50;86.40
66057;DHT22;52842;52.666;5.202;2022-10-31T03:53:25;18.50;86.40
66057;DHT22;52842;52.666;5.202;2022-10-31T03:55:57;18.50;86.30
66057;DHT22;52842;52.666;5.202;2022-10-31T03:58:26;18.50;86.30
66057;DHT22;52842;52.666;5.202;2022-10-31T04:00:54;18.50;86.40
66057;DHT22;52842;52.666;5.202;2022-10-31T04:03:22;18.50;86.30
66057;DHT22;52842;52.666;5.202;2022-10-31T04:05:50;18.50;86.30
66057;DHT22;52842;52.666;5.202;2022-10-31T04:08:19;18.50;86.30
66057;DHT22;52842;52.666;5.202;2022-10-31T04:10:47;18.50;86.40
66057;DHT22;52842;52.666;5.202;2022-10-31T04:13:17;18.50;86.30
66057;DHT22;52842;52.666;5.202;2022-10-31T04:15:45;18.40;86.30
66057;DHT22;52842;52.666;5.202;2022-10-31T04:18:12;18.40;86.30
66057;DHT22;52842;52.666;5.202;2022-10-31T04:20:40;18.40;86.30
66057;DHT22;52842;52.666;5.202;2022-10-31T04:23:10;18.40;86.30
66057;DHT22;52842;52.666;5.202;2022-10-31T04:25:40;18.40;86.40
66057;DHT22;52842;52.666;5.202;2022-10-31T04:28:07;18.40;86.50
66057;DHT22;52842;52.666;5.202;2022-10-31T04:30:34;18.40;86.50
66057;DHT22;52842;52.666;5.202;2022-10-31T04:33:01;18.40;86.60
66057;DHT22;52842;52.666;5.202;2022-10-31T04:35:28;18.40;86.70
66057;DHT22;52842;52.666;5.202;2022-10-31T04:37:54;18.40;86.70
66057;DHT22;52842;52.666;5.202;2022-10-31T04:40:21;18.40;86.70
66057;DHT22;52842;52.666;5.202;2022-10-31T04:42:48;18.40;86.80
66057;DHT22;52842;52.666;5.202;2022-10-31T04:45:14;18.40;86.90
66057;DHT22;52842;52.666;5.202;2022-10-31T04:47:42;18.40;86.90
66057;DHT22;52842;52.666;5.202;2022-10-31T04:50:09;18.40;86.90
66057;DHT22;52842;52.666;5.202;2022-10-31T04:52:38;18.40;87.00
66057;DHT22;52842;52.666;5.202;2022-10-31T04:55:05;18.40;87.10
66057;DHT22;52842;52.666;5.202;2022-10-31T04:57:32;18.40;87.10
66057;DHT22;52842;52.666;5.202;2022-10-31T04:59:58;18.30;87.20
66057;DHT22;52842;52.666;5.202;2022-10-31T05:02:25;18.30;87.30
66057;DHT22;52842;52.666;5.202;2022-10-31T05:04:53;18.40;87.40
66057;DHT22;52842;52.666;5.202;2022-10-31T05:07:19;18.30;87.40
66057;DHT22;52842;52.666;5.202;2022-10-31T05:09:46;18.30;87.40
66057;DHT22;52842;52.666;5.202;2022-10-31T05:12:13;18.30;87.40
66057;DHT22;52842;52.666;5.202;2022-10-31T05:14:39;18.30;87.50
66057;DHT22;52842;52.666;5.202;2022-10-31T05:17:06;18.30;87.50
66057;DHT22;52842;52.666;5.202;2022-10-31T05:19:32;18.30;87.50
66057;DHT22;52842;52.666;5.202;2022-10-31T05:22:00;18.30;87.50
66057;DHT22;52842;52.666;5.202;2022-10-31T05:24:27;18.30;87.50
66057;DHT22;52842;52.666;5.202;2022-10-31T05:26:54;18.30;87.60
66057;DHT22;52842;52.666;5.202;2022-10-31T05:29:20;18.30;87.50
66057;DHT22;52842;52.666;5.202;2022-10-31T05:31:47;18.30;87.60
66057;DHT22;52842;52.666;5.202;2022-10-31T05:34:13;18.30;87.60
66057;DHT22;52842;52.666;5.202;2022-10-31T05:36:40;18.30;87.60
66057;DHT22;52842;52.666;5.202;2022-10-31T05:39:08;18.30;87.80
66057;DHT22;52842;52.666;5.202;2022-10-31T05:41:35;18.30;87.80
66057;DHT22;52842;52.666;5.202;2022-10-31T05:44:01;18.30;87.80
66057;DHT22;52842;52.666;5.202;2022-10-31T05:46:28;18.30;87.80
66057;DHT22;52842;52.666;5.202;2022-10-31T05:48:54;18.30;87.80
66057;DHT22;52842;52.666;5.202;2022-10-31T05:51:21;18.30;87.80
66057;DHT22;52842;52.666;5.202;2022-10-31T05:53:48;18.30;87.80
66057;DHT22;52842;52.666;5.202;2022-10-31T05:56:16;18.30;87.80
66057;DHT22;52842;52.666;5.202;2022-10-31T05:58:42;18.30;88.20
66057;DHT22;52842;52.666;5.202;2022-10-31T06:01:09;18.30;88.00
66057;DHT22;52842;52.666;5.202;2022-10-31T06:03:36;18.30;88.10
66057;DHT22;52842;52.666;5.202;2022-10-31T06:06:03;18.30;88.20
66057;DHT22;52842;52.666;5.202;2022-10-31T06:08:29;18.30;88.30
66057;DHT22;52842;52.666;5.202;2022-10-31T06:10:56;18.30;88.40
66057;DHT22;52842;52.666;5.202;2022-10-31T06:13:24;18.30;88.40
66057;DHT22;52842;52.666;5.202;2022-10-31T06:15:50;18.30;88.50
66057;DHT22;52842;52.666;5.202;2022-10-31T06:18:17;18.30;88.50
66057;DHT22;52842;52.666;5.202;2022-10-31T06:20:44;18.30;88.60
66057;DHT22;52842;52.666;5.202;2022-10-31T06:23:10;18.30;88.60
66057;DHT22;52842;52.666;5.202;2022-10-31T06:25:37;18.30;88.60
66057;DHT22;52842;52.666;5.202;2022-10-31T06:28:04;18.30;88.60
66057;DHT22;52842;52.666;5.202;2022-10-31T06:30:32;18.30;88.60
66057;DHT22;52842;52.666;5.202;2022-10-31T06:33:02;18.30;88.60
66057;DHT22;52842;52.666;5.202;2022-10-31T06:35:30;18.30;88.60
66057;DHT22;52842;52.666;5.202;2022-10-31T06:37:57;18.30;88.60
66057;DHT22;52842;52.666;5.202;2022-10-31T06:40:23;18.30;88.50
66057;DHT22;52842;52.666;5.202;2022-10-31T06:42:59;18.40;88.60
66057;DHT22;52842;52.666;5.202;2022-10-31T06:45:26;18.30;88.50
66057;DHT22;52842;52.666;5.202;2022-10-31T06:47:54;18.30;88.40
66057;DHT22;52842;52.666;5.202;2022-10-31T06:50:21;18.30;88.30
66057;DHT22;52842;52.666;5.202;2022-10-31T06:52:51;18.30;88.20
66057;DHT22;52842;52.666;5.202;2022-10-31T06:55:18;18.30;88.10
66057;DHT22;52842;52.666;5.202;2022-10-31T06:57:50;18.30;88.20
66057;DHT22;52842;52.666;5.202;2022-10-31T07:00:17;18.30;88.20
66057;DHT22;52842;52.666;5.202;2022-10-31T07:02:44;18.30;88.20
66057;DHT22;52842;52.666;5.202;2022-10-31T07:05:20;18.30;88.20
66057;DHT22;52842;52.666;5.202;2022-10-31T07:07:46;18.30;88.20
66057;DHT22;52842;52.666;5.202;2022-10-31T07:10:13;18.30;88.20
66057;DHT22;52842;52.666;5.202;2022-10-31T07:12:39;18.30;88.20
66057;DHT22;52842;52.666;5.202;2022-10-31T07:15:06;18.30;88.20
66057;DHT22;52842;52.666;5.202;2022-10-31T07:17:33;18.30;88.10
66057;DHT22;52842;52.666;5.202;2022-10-31T07:20:00;18.30;88.10
66057;DHT22;52842;52.666;5.202;2022-10-31T07:22:33;18.30;88.10
66057;DHT22;52842;52.666;5.202;2022-10-31T07:24:59;18.30;88.10
66057;DHT22;52842;52.666;5.202;2022-10-31T07:27:26;18.30;87.90
66057;DHT22;52842;52.666;5.202;2022-10-31T07:29:53;18.30;87.80
66057;DHT22;52842;52.666;5.202;2022-10-31T07:32:19;18.30;87.70
66057;DHT22;52842;52.666;5.202;2022-10-31T07:34:46;18.30;87.60
66057;DHT22;52842;52.666;5.202;2022-10-31T07:37:12;18.20;87.50
66057;DHT22;52842;52.666;5.202;2022-10-31T07:39:40;18.30;87.50
66057;DHT22;52842;52.666;5.202;2022-10-31T07:42:07;18.30;87.60
66057;DHT22;52842;52.666;5.202;2022-10-31T07:44:34;18.20;87.70
66057;DHT22;52842;52.666;5.202;2022-10-31T07:47:00;18.30;87.90
66057;DHT22;52842;52.666;5.202;2022-10-31T07:49:27;18.20;88.00
66057;DHT22;52842;52.666;5.202;2022-10-31T07:51:54;18.20;88.00
66057;DHT22;52842;52.666;5.202;2022-10-31T07:54:21;18.20;88.30
66057;DHT22;52842;52.666;5.202;2022-10-31T07:56:49;18.20;88.30
66057;DHT22;52842;52.666;5.202;2022-10-31T07:59:16;18.30;88.40
66057;DHT22;52842;52.666;5.202;2022-10-31T08:01:42;18.30;88.40
66057;DHT22;52842;52.666;5.202;2022-10-31T08:04:09;18.30;88.40
66057;DHT22;52842;52.666;5.202;2022-10-31T08:06:36;18.30;88.30
66057;DHT22;52842;52.666;5.202;2022-10-31T08:09:02;18.30;88.10
66057;DHT22;52842;52.666;5.202;2022-10-31T08:11:29;18.30;88.00
66057;DHT22;52842;52.666;5.202;2022-10-31T08:13:57;18.30;87.90
66057;DHT22;52842;52.666;5.202;2022-10-31T08:16:23;18.30;87.90
66057;DHT22;52842;52.666;5.202;2022-10-31T08:18:50;18.30;87.90
66057;DHT22;52842;52.666;5.202;2022-10-31T08:21:18;18.30;87.90
66057;DHT22;52842;52.666;5.202;2022-10-31T08:23:45;18.30;87.90
66057;DHT22;52842;52.666;5.202;2022-10-31T08:26:11;18.30;88.00
66057;DHT22;52842;52.666;5.202;2022-10-31T08:28:38;18.30;88.00
66057;DHT22;52842;52.666;5.202;2022-10-31T08:31:06;18.30;88.00
66057;DHT22;52842;52.666;5.202;2022-10-31T08:33:33;18.30;88.00
66057;DHT22;52842;52.666;5.202;2022-10-31T08:35:59;18.30;88.00
66057;DHT22;52842;52.666;5.202;2022-10-31T08:38:26;18.30;88.00
66057;DHT22;52842;52.666;5.202;2022-10-31T08:40:53;18.30;88.00
66057;DHT22;52842;52.666;5.202;2022-10-31T08:43:19;18.20;87.90
66057;DHT22;52842;52.666;5.202;2022-10-31T08:45:47;18.20;87.90
66057;DHT22;52842;52.666;5.202;2022-10-31T08:48:16;18.20;87.90
66057;DHT22;52842;52.666;5.202;2022-10-31T08:50:43;18.30;87.80
66057;DHT22;52842;52.666;5.202;2022-10-31T08:53:11;18.30;87.70
66057;DHT22;52842;52.666;5.202;2022-10-31T08:55:38;18.40;87.50
66057;DHT22;52842;52.666;5.202;2022-10-31T08:58:05;18.50;87.20
66057;DHT22;52842;52.666;5.202;2022-10-31T09:00:32;18.60;86.90
66057;DHT22;52842;52.666;5.202;2022-10-31T09:03:00;18.70;86.60
66057;DHT22;52842;52.666;5.202;2022-10-31T09:05:28;18.60;86.40
66057;DHT22;52842;52.666;5.202;2022-10-31T09:07:55;18.70;86.30
66057;DHT22;52842;52.666;5.202;2022-10-31T09:10:23;18.70;86.20
66057;DHT22;52842;52.666;5.202;2022-10-31T09:12:54;18.70;86.10
66057;DHT22;52842;52.666;5.202;2022-10-31T09:15:20;18.80;86.10
66057;DHT22;52842;52.666;5.202;2022-10-31T09:17:47;18.80;85.90
66057;DHT22;52842;52.666;5.202;2022-10-31T09:20:14;18.80;85.80
66057;DHT22;52842;52.666;5.202;2022-10-31T09:22:42;18.80;85.80
66057;DHT22;52842;52.666;5.202;2022-10-31T09:25:11;18.80;85.80
66057;DHT22;52842;52.666;5.202;2022-10-31T09:27:38;18.80;85.80
66057;DHT22;52842;52.666;5.202;2022-10-31T09:30:05;18.80;85.80
66057;DHT22;52842;52.666;5.202;2022-10-31T09:32:32;18.90;85.90
66057;DHT22;52842;52.666;5.202;2022-10-31T09:34:58;18.90;85.70
66057;DHT22;52842;52.666;5.202;2022-10-31T09:37:25;18.90;85.60
66057;DHT22;52842;52.666;5.202;2022-10-31T09:39:53;19.00;85.50
66057;DHT22;52842;52.666;5.202;2022-10-31T09:42:33;19.00;85.40
66057;DHT22;52842;52.666;5.202;2022-10-31T09:45:04;19.00;85.30
66057;DHT22;52842;52.666;5.202;2022-10-31T09:47:36;19.00;85.20
66057;DHT22;52842;52.666;5.202;2022-10-31T09:50:13;19.00;85.20
66057;DHT22;52842;52.666;5.202;2022-10-31T09:52:42;19.00;85.20
66057;DHT22;52842;52.666;5.202;2022-10-31T09:55:13;19.00;85.20
66057;DHT22;52842;52.666;5.202;2022-10-31T09:57:42;19.00;85.10
66057;DHT22;52842;52.666;5.202;2022-10-31T10:00:10;19.00;85.10
66057;DHT22;52842;52.666;5.202;2022-10-31T10:02:41;19.00;85.10
66057;DHT22;52842;52.666;5.202;2022-10-31T10:05:09;19.00;85.10
66057;DHT22;52842;52.666;5.202;2022-10-31T10:07:39;19.00;85.20
66057;DHT22;52842;52.666;5.202;2022-10-31T10:10:13;19.00;85.10
66057;DHT22;52842;52.666;5.202;2022-10-31T10:12:44;19.10;85.20
66057;DHT22;52842;52.666;5.202;2022-10-31T10:15:24;19.10;85.20
66057;DHT22;52842;52.666;5.202;2022-10-31T10:17:56;19.10;85.10
66057;DHT22;52842;52.666;5.202;2022-10-31T10:20:28;19.10;85.10
66057;DHT22;52842;52.666;5.202;2022-10-31T10:23:01;19.10;85.10
66057;DHT22;52842;52.666;5.202;2022-10-31T10:25:33;19.10;85.00
66057;DHT22;52842;52.666;5.202;2022-10-31T10:28:03;19.10;85.00
66057;DHT22;52842;52.666;5.202;2022-10-31T10:30:33;19.10;85.00
66057;DHT22;52842;52.666;5.202;2022-10-31T10:33:02;19.10;84.90
66057;DHT22;52842;52.666;5.202;2022-10-31T10:35:30;19.10;84.80
66057;DHT22;52842;52.666;5.202;2022-10-31T10:38:01;19.10;84.90
66057;DHT22;52842;52.666;5.202;2022-10-31T10:40:28;19.10;84.80
66057;DHT22;52842;52.666;5.202;2022-10-31T10:42:59;19.10;84.80
66057;DHT22;52842;52.666;5.202;2022-10-31T10:45:50;19.10;84.80
66057;DHT22;52842;52.666;5.202;2022-10-31T10:48:38;19.10;84.90
66057;DHT22;52842;52.666;5.202;2022-10-31T10:51:08;19.10;84.80
66057;DHT22;52842;52.666;5.202;2022-10-31T10:53:39;19.10;84.70
66057;DHT22;52842;52.666;5.202;2022-10-31T10:56:27;19.20;84.70
66057;DHT22;52842;52.666;5.202;2022-10-31T10:58:58;19.20;84.60
66057;DHT22;52842;52.666;5.202;2022-10-31T11:01:24;19.20;84.60
66057;DHT22;52842;52.666;5.202;2022-10-31T11:03:51;19.20;84.60
66057;DHT22;52842;52.666;5.202;2022-10-31T11:06:18;19.20;84.60
66057;DHT22;52842;52.666;5.202;2022-10-31T11:08:47;19.30;84.50
66057;DHT22;52842;52.666;5.202;2022-10-31T11:11:19;19.30;84.40
66057;DHT22;52842;52.666;5.202;2022-10-31T11:13:52;19.30;84.40
66057;DHT22;52842;52.666;5.202;2022-10-31T11:16:28;19.30;84.40
66057;DHT22;52842;52.666;5.202;2022-10-31T11:19:04;19.30;84.40
66057;DHT22;52842;52.666;5.202;2022-10-31T11:21:32;19.30;84.40
66057;DHT22;52842;52.666;5.202;2022-10-31T11:24:03;19.30;84.40
66057;DHT22;52842;52.666;5.202;2022-10-31T11:26:30;19.30;84.40
66057;DHT22;52842;52.666;5.202;2022-10-31T11:29:00;19.30;84.30
66057;DHT22;52842;52.666;5.202;2022-10-31T11:31:29;19.30;84.30
66057;DHT22;52842;52.666;5.202;2022-10-31T11:33:58;19.30;84.30
66057;DHT22;52842;52.666;5.202;2022-10-31T11:36:26;19.30;84.20
66057;DHT22;52842;52.666;5.202;2022-10-31T11:38:53;19.30;84.20
66057;DHT22;52842;52.666;5.202;2022-10-31T11:41:24;19.30;84.10
66057;DHT22;52842;52.666;5.202;2022-10-31T11:43:53;19.40;84.10
66057;DHT22;52842;52.666;5.202;2022-10-31T11:46:21;19.40;84.10
66057;DHT22;52842;52.666;5.202;2022-10-31T11:48:51;19.40;84.00
66057;DHT22;52842;52.666;5.202;2022-10-31T11:51:20;19.40;84.00
66057;DHT22;52842;52.666;5.202;2022-10-31T11:53:49;19.40;84.00
66057;DHT22;52842;52.666;5.202;2022-10-31T11:56:17;19.40;84.00
66057;DHT22;52842;52.666;5.202;2022-10-31T11:58:54;19.40;84.00
66057;DHT22;52842;52.666;5.202;2022-10-31T12:01:23;19.40;84.00
66057;DHT22;52842;52.666;5.202;2022-10-31T12:03:54;19.50;84.00
66057;DHT22;52842;52.666;5.202;2022-10-31T12:06:22;19.50;83.90
66057;DHT22;52842;52.666;5.202;2022-10-31T12:08:49;19.50;83.80
66057;DHT22;52842;52.666;5.202;2022-10-31T12:14:05;19.50;83.80
66057;DHT22;52842;52.666;5.202;2022-10-31T12:16:34;19.50;83.90
66057;DHT22;52842;52.666;5.202;2022-10-31T12:19:04;19.50;83.80
66057;DHT22;52842;52.666;5.202;2022-10-31T12:21:34;19.50;83.80
66057;DHT22;52842;52.666;5.202;2022-10-31T12:24:05;19.50;83.70
66057;DHT22;52842;52.666;5.202;2022-10-31T12:26:37;19.50;83.70
66057;DHT22;52842;52.666;5.202;2022-10-31T12:29:09;19.50;83.60
66057;DHT22;52842;52.666;5.202;2022-10-31T12:31:48;19.50;83.60
66057;DHT22;52842;52.666;5.202;2022-10-31T12:34:25;19.50;83.60
66057;DHT22;52842;52.666;5.202;2022-10-31T12:36:56;19.50;83.60
66057;DHT22;52842;52.666;5.202;2022-10-31T12:39:24;19.60;83.70
66057;DHT22;52842;52.666;5.202;2022-10-31T12:41:51;19.60;83.70
66057;DHT22;52842;52.666;5.202;2022-10-31T12:44:28;19.60;83.70
66057;DHT22;52842;52.666;5.202;2022-10-31T12:47:01;19.60;83.70
66057;DHT22;52842;52.666;5.202;2022-10-31T12:49:37;19.60;83.70
66057;DHT22;52842;52.666;5.202;2022-10-31T12:52:10;19.60;83.70
66057;DHT22;52842;52.666;5.202;2022-10-31T12:54:46;19.60;83.70
66057;DHT22;52842;52.666;5.202;2022-10-31T12:57:18;19.60;83.70
66057;DHT22;52842;52.666;5.202;2022-10-31T12:59:47;19.60;83.70
66057;DHT22;52842;52.666;5.202;2022-10-31T13:02:16;19.60;83.70
66057;DHT22;52842;52.666;5.202;2022-10-31T13:04:46;19.60;83.60
66057;DHT22;52842;52.666;5.202;2022-10-31T13:07:20;19.60;83.60
66057;DHT22;52842;52.666;5.202;2022-10-31T13:09:50;19.60;83.60
66057;DHT22;52842;52.666;5.202;2022-10-31T13:12:18;19.70;83.60
66057;DHT22;52842;52.666;5.202;2022-10-31T13:14:46;19.70;83.60
66057;DHT22;52842;52.666;5.202;2022-10-31T13:17:16;19.70;83.50
66057;DHT22;52842;52.666;5.202;2022-10-31T13:19:47;19.70;83.50
66057;DHT22;52842;52.666;5.202;2022-10-31T13:22:16;19.70;83.50
66057;DHT22;52842;52.666;5.202;2022-10-31T13:24:44;19.70;83.60
66057;DHT22;52842;52.666;5.202;2022-10-31T13:27:14;19.70;83.60
66057;DHT22;52842;52.666;5.202;2022-10-31T13:29:47;19.70;83.40
66057;DHT22;52842;52.666;5.202;2022-10-31T13:32:17;19.80;83.50
66057;DHT22;52842;52.666;5.202;2022-10-31T13:34:45;19.70;83.40
66057;DHT22;52842;52.666;5.202;2022-10-31T13:37:17;19.80;83.50
66057;DHT22;52842;52.666;5.202;2022-10-31T13:39:55;19.80;83.40
66057;DHT22;52842;52.666;5.202;2022-10-31T13:42:31;19.80;83.40
66057;DHT22;52842;52.666;5.202;2022-10-31T13:45:11;19.80;83.40
66057;DHT22;52842;52.666;5.202;2022-10-31T13:47:38;19.80;83.40
66057;DHT22;52842;52.666;5.202;2022-10-31T13:50:05;19.80;83.40
66057;DHT22;52842;52.666;5.202;2022-10-31T13:52:34;19.80;83.30
66057;DHT22;52842;52.666;5.202;2022-10-31T13:55:02;19.80;83.40
66057;DHT22;52842;52.666;5.202;2022-10-31T13:57:32;19.80;83.30
66057;DHT22;52842;52.666;5.202;2022-10-31T14:00:03;19.80;83.30
66057;DHT22;52842;52.666;5.202;2022-10-31T14:02:30;19.80;83.30
66057;DHT22;52842;52.666;5.202;2022-10-31T14:04:58;19.80;83.30
66057;DHT22;52842;52.666;5.202;2022-10-31T14:07:25;19.80;83.30
66057;DHT22;52842;52.666;5.202;2022-10-31T14:09:55;19.80;83.30
66057;DHT22;52842;52.666;5.202;2022-10-31T14:12:23;19.80;83.30
66057;DHT22;52842;52.666;5.202;2022-10-31T14:14:51;19.80;83.20
66057;DHT22;52842;52.666;5.202;2022-10-31T14:17:20;19.80;83.30
66057;DHT22;52842;52.666;5.202;2022-10-31T14:22:36;19.80;83.20
66057;DHT22;52842;52.666;5.202;2022-10-31T14:27:46;19.80;83.20
66057;DHT22;52842;52.666;5.202;2022-10-31T14:30:14;19.80;83.10
66057;DHT22;52842;52.666;5.202;2022-10-31T14:32:41;19.80;83.00
66057;DHT22;52842;52.666;5.202;2022-10-31T14:35:09;19.80;83.00
66057;DHT22;52842;52.666;5.202;2022-10-31T14:37:44;19.80;83.00
66057;DHT22;52842;52.666;5.202;2022-10-31T14:40:21;19.80;82.80
66057;DHT22;52842;52.666;5.202;2022-10-31T14:42:55;19.80;82.90
66057;DHT22;52842;52.666;5.202;2022-10-31T14:45:27;19.80;82.90
66057;DHT22;52842;52.666;5.202;2022-10-31T14:48:01;19.80;83.00
66057;DHT22;52842;52.666;5.202;2022-10-31T14:50:36;19.80;83.00
66057;DHT22;52842;52.666;5.202;2022-10-31T14:53:05;19.80;83.00
66057;DHT22;52842;52.666;5.202;2022-10-31T14:55:32;19.80;82.90
66057;DHT22;52842;52.666;5.202;2022-10-31T14:58:01;19.80;82.80
66057;DHT22;52842;52.666;5.202;2022-10-31T15:00:29;19.80;82.70
66057;DHT22;52842;52.666;5.202;2022-10-31T15:02:59;19.80;82.70
66057;DHT22;52842;52.666;5.202;2022-10-31T15:05:32;19.80;82.70
66057;DHT22;52842;52.666;5.202;2022-10-31T15:07:59;19.80;82.70
66057;DHT22;52842;52.666;5.202;2022-10-31T15:10:26;19.80;82.70
66057;DHT22;52842;52.666;5.202;2022-10-31T15:12:55;19.80;82.70
66057;DHT22;52842;52.666;5.202;2022-10-31T15:15:23;19.80;82.70
66057;DHT22;52842;52.666;5.202;2022-10-31T15:17:52;19.80;82.80
66057;DHT22;52842;52.666;5.202;2022-10-31T15:20:19;19.80;82.90
66057;DHT22;52842;52.666;5.202;2022-10-31T15:22:47;19.80;83.00
66057;DHT22;52842;52.666;5.202;2022-10-31T15:25:16;19.80;83.10
66057;DHT22;52842;52.666;5.202;2022-10-31T15:27:43;19.80;83.20
66057;DHT22;52842;52.666;5.202;2022-10-31T15:30:17;19.80;83.10
66057;DHT22;52842;52.666;5.202;2022-10-31T15:32:46;19.80;83.20
66057;DHT22;52842;52.666;5.202;2022-10-31T15:35:20;19.80;83.20
66057;DHT22;52842;52.666;5.202;2022-10-31T15:37:47;19.80;83.10
66057;DHT22;52842;52.666;5.202;2022-10-31T15:40:15;19.80;83.90
66057;DHT22;52842;52.666;5.202;2022-10-31T15:42:42;19.80;83.10
66057;DHT22;52842;52.666;5.202;2022-10-31T15:45:16;19.90;83.10
66057;DHT22;52842;52.666;5.202;2022-10-31T15:47:46;19.90;83.20
66057;DHT22;52842;52.666;5.202;2022-10-31T15:50:18;19.90;83.80